sensor_id;sensor_type;location;lat;lon;timestamp;temperature;humidity
71396;DHT22;59888;55.814;37.132;2023-04-29T00:00:12;7.35;63.84
71396;DHT22;59888;55.814;37.132;2023-04-29T00:02:40;7.34;63.79
71396;DHT22;59888;55.814;37.132;2023-04-29T00:05:07;7.30;63.48
71396;DHT22;59888;55.814;37.132;2023-04-29T00:07:34;7.26;63.67
71396;DHT22;59888;55.814;37.132;2023-04-29T00:10:01;7.24;63.85
71396;DHT22;59888;55.814;37.132;2023-04-29T00:12:30;7.24;64.63
71396;DHT22;59888;55.814;37.132;2023-04-29T00:14:58;7.20;63.34
71396;DHT22;59888;55.814;37.132;2023-04-29T00:17:26;7.15;64.34
71396;DHT22;59888;55.814;37.132;2023-04-29T00:19:52;7.13;63.56
71396;DHT22;59888;55.814;37.132;2023-04-29T00:22:18;7.13;64.24
71396;DHT22;59888;55.814;37.132;2023-04-29T00:24:45;7.16;63.65
71396;DHT22;59888;55.814;37.132;2023-04-29T00:27:11;7.16;64.61
71396;DHT22;59888;55.814;37.132;2023-04-29T00:29:37;7.14;64.01
71396;DHT22;59888;55.814;37.132;2023-04-29T00:32:04;7.15;63.82
71396;DHT22;59888;55.814;37.132;2023-04-29T00:34:30;7.13;64.07
71396;DHT22;59888;55.814;37.132;2023-04-29T00:36:56;7.13;63.56
71396;DHT22;59888;55.814;37.132;2023-04-29T00:39:23;7.13;63.31
71396;DHT22;59888;55.814;37.132;2023-04-29T00:41:50;7.13;63.66
71396;DHT22;59888;55.814;37.132;2023-04-29T00:44:16;7.08;65.38
71396;DHT22;59888;55.814;37.132;2023-04-29T00:46:42;7.05;64.42
71396;DHT22;59888;55.814;37.132;2023-04-29T00:49:10;7.02;64.29
71396;DHT22;59888;55.814;37.132;2023-04-29T00:51:38;7.01;64.69
71396;DHT22;59888;55.814;37.132;2023-04-29T00:54:06;6.99;64.40
71396;DHT22;59888;55.814;37.132;2023-04-29T00:56:34;7.00;64.76
71396;DHT22;59888;55.814;37.132;2023-04-29T00:59:01;6.99;63.73
71396;DHT22;59888;55.814;37.132;2023-04-29T01:01:29;6.95;63.80
71396;DHT22;59888;55.814;37.132;2023-04-29T01:03:56;6.91;64.26
71396;DHT22;59888;55.814;37.132;2023-04-29T01:09:54;6.89;64.19
71396;DHT22;59888;55.814;37.132;2023-04-29T01:12:40;6.88;64.26
71396;DHT22;59888;55.814;37.132;2023-04-29T01:15:26;6.94;63.94
71396;DHT22;59888;55.814;37.132;2023-04-29T01:18:19;6.96;63.67
71396;DHT22;59888;55.814;37.132;2023-04-29T01:20:48;6.95;63.64
71396;DHT22;59888;55.814;37.132;2023-04-29T01:23:14;6.98;64.34
71396;DHT22;59888;55.814;37.132;2023-04-29T01:25:41;7.00;63.26
71396;DHT22;59888;55.814;37.132;2023-04-29T01:38:55;6.98;63.49
71396;DHT22;59888;55.814;37.132;2023-04-29T01:44:07;7.00;63.50
71396;DHT22;59888;55.814;37.132;2023-04-29T01:46:36;6.94;64.37
71396;DHT22;59888;55.814;37.132;2023-04-29T01:49:02;6.89;64.15
71396;DHT22;59888;55.814;37.132;2023-04-29T01:51:29;6.90;64.06
71396;DHT22;59888;55.814;37.132;2023-04-29T01:53:56;6.87;64.30
71396;DHT22;59888;55.814;37.132;2023-04-29T01:56:22;6.86;64.40
71396;DHT22;59888;55.814;37.132;2023-04-29T01:59:02;6.88;64.59
71396;DHT22;59888;55.814;37.132;2023-04-29T02:01:35;6.86;64.81
71396;DHT22;59888;55.814;37.132;2023-04-29T02:04:02;6.86;64.25
71396;DHT22;59888;55.814;37.132;2023-04-29T02:06:28;6.87;64.77
71396;DHT22;59888;55.814;37.132;2023-04-29T02:09:00;6.86;64.65
71396;DHT22;59888;55.814;37.132;2023-04-29T02:11:26;6.89;64.02
71396;DHT22;59888;55.814;37.132;2023-04-29T02:13:54;6.95;64.21
71396;DHT22;59888;55.814;37.132;2023-04-29T02:16:21;7.01;64.22
71396;DHT22;59888;55.814;37.132;2023-04-29T02:19:03;7.10;63.61
71396;DHT22;59888;55.814;37.132;2023-04-29T02:21:29;7.12;64.43
71396;DHT22;59888;55.814;37.132;2023-04-29T02:24:20;7.14;64.00
71396;DHT22;59888;55.814;37.132;2023-04-29T02:26:47;7.12;64.11
71396;DHT22;59888;55.814;37.132;2023-04-29T02:29:13;7.14;63.80
71396;DHT22;59888;55.814;37.132;2023-04-29T02:31:39;7.17;63.60
71396;DHT22;59888;55.814;37.132;2023-04-29T02:34:05;7.16;64.79
71396;DHT22;59888;55.814;37.132;2023-04-29T02:36:33;7.13;63.95
71396;DHT22;59888;55.814;37.132;2023-04-29T02:38:59;7.12;63.49
71396;DHT22;59888;55.814;37.132;2023-04-29T02:41:25;7.07;63.93
71396;DHT22;59888;55.814;37.132;2023-04-29T02:43:51;7.08;63.82
71396;DHT22;59888;55.814;37.132;2023-04-29T02:46:17;7.16;63.48
71396;DHT22;59888;55.814;37.132;2023-04-29T02:48:44;7.16;63.53
71396;DHT22;59888;55.814;37.132;2023-04-29T02:51:10;7.11;63.93
71396;DHT22;59888;55.814;37.132;2023-04-29T02:53:36;7.04;63.08
71396;DHT22;59888;55.814;37.132;2023-04-29T02:56:02;7.03;63.56
71396;DHT22;59888;55.814;37.132;2023-04-29T02:58:29;7.02;63.44
71396;DHT22;59888;55.814;37.132;2023-04-29T03:00:55;7.04;63.20
71396;DHT22;59888;55.814;37.132;2023-04-29T03:03:21;7.04;63.44
71396;DHT22;59888;55.814;37.132;2023-04-29T03:05:48;6.97;62.96
71396;DHT22;59888;55.814;37.132;2023-04-29T03:08:15;6.94;62.92
71396;DHT22;59888;55.814;37.132;2023-04-29T03:10:41;6.97;62.73
71396;DHT22;59888;55.814;37.132;2023-04-29T03:13:07;6.99;63.12
71396;DHT22;59888;55.814;37.132;2023-04-29T03:15:35;7.01;62.64
71396;DHT22;59888;55.814;37.132;2023-04-29T03:18:02;7.04;62.60
71396;DHT22;59888;55.814;37.132;2023-04-29T03:20:29;7.02;62.65
71396;DHT22;59888;55.814;37.132;2023-04-29T03:23:00;7.03;62.50
71396;DHT22;59888;55.814;37.132;2023-04-29T03:25:27;7.07;62.96
71396;DHT22;59888;55.814;37.132;2023-04-29T03:27:53;7.08;62.94
71396;DHT22;59888;55.814;37.132;2023-04-29T03:30:19;7.09;62.62
71396;DHT22;59888;55.814;37.132;2023-04-29T03:32:50;7.10;62.59
71396;DHT22;59888;55.814;37.132;2023-04-29T03:35:16;7.13;62.54
71396;DHT22;59888;55.814;37.132;2023-04-29T03:37:55;7.16;62.12
71396;DHT22;59888;55.814;37.132;2023-04-29T03:40:26;7.18;62.15
71396;DHT22;59888;55.814;37.132;2023-04-29T03:42:52;7.20;62.00
71396;DHT22;59888;55.814;37.132;2023-04-29T03:45:19;7.23;62.31
71396;DHT22;59888;55.814;37.132;2023-04-29T03:47:45;7.26;61.97
71396;DHT22;59888;55.814;37.132;2023-04-29T03:50:11;7.34;62.01
71396;DHT22;59888;55.814;37.132;2023-04-29T03:52:38;7.41;61.31
71396;DHT22;59888;55.814;37.132;2023-04-29T03:55:10;7.45;61.69
71396;DHT22;59888;55.814;37.132;2023-04-29T03:57:37;7.48;61.81
71396;DHT22;59888;55.814;37.132;2023-04-29T04:00:04;7.47;61.51
71396;DHT22;59888;55.814;37.132;2023-04-29T04:02:39;7.53;61.19
71396;DHT22;59888;55.814;37.132;2023-04-29T04:05:07;7.57;61.47
71396;DHT22;59888;55.814;37.132;2023-04-29T04:07:34;7.61;60.87
71396;DHT22;59888;55.814;37.132;2023-04-29T04:10:36;7.64;61.10
71396;DHT22;59888;55.814;37.132;2023-04-29T04:13:07;7.68;61.05
71396;DHT22;59888;55.814;37.132;2023-04-29T04:15:34;7.74;61.09
71396;DHT22;59888;55.814;37.132;2023-04-29T04:18:01;7.77;60.97
71396;DHT22;59888;55.814;37.132;2023-04-29T04:20:27;7.87;60.80
71396;DHT22;59888;55.814;37.132;2023-04-29T04:22:53;7.91;60.60
71396;DHT22;59888;55.814;37.132;2023-04-29T04:25:24;8.01;60.44
71396;DHT22;59888;55.814;37.132;2023-04-29T04:27:51;8.06;59.99
71396;DHT22;59888;55.814;37.132;2023-04-29T04:30:29;8.07;60.84
71396;DHT22;59888;55.814;37.132;2023-04-29T04:32:55;8.07;60.32
71396;DHT22;59888;55.814;37.132;2023-04-29T04:35:21;8.19;60.39
71396;DHT22;59888;55.814;37.132;2023-04-29T04:37:48;8.21;59.91
71396;DHT22;59888;55.814;37.132;2023-04-29T04:40:14;8.23;59.92
71396;DHT22;59888;55.814;37.132;2023-04-29T04:43:00;8.17;59.80
71396;DHT22;59888;55.814;37.132;2023-04-29T04:45:30;8.18;59.75
71396;DHT22;59888;55.814;37.132;2023-04-29T04:47:56;8.24;59.41
71396;DHT22;59888;55.814;37.132;2023-04-29T04:50:29;8.29;59.64
71396;DHT22;59888;55.814;37.132;2023-04-29T04:52:55;8.32;59.45
71396;DHT22;59888;55.814;37.132;2023-04-29T04:55:40;8.37;59.19
71396;DHT22;59888;55.814;37.132;2023-04-29T04:58:06;8.46;59.00
71396;DHT22;59888;55.814;37.132;2023-04-29T05:00:34;8.49;59.22
71396;DHT22;59888;55.814;37.132;2023-04-29T05:03:00;8.49;58.83
71396;DHT22;59888;55.814;37.132;2023-04-29T05:05:27;8.48;58.78
71396;DHT22;59888;55.814;37.132;2023-04-29T05:07:53;8.48;58.98
71396;DHT22;59888;55.814;37.132;2023-04-29T05:10:25;8.50;58.96
71396;DHT22;59888;55.814;37.132;2023-04-29T05:12:53;8.53;58.67
71396;DHT22;59888;55.814;37.132;2023-04-29T05:15:20;8.56;58.82
71396;DHT22;59888;55.814;37.132;2023-04-29T05:17:48;8.55;58.65
71396;DHT22;59888;55.814;37.132;2023-04-29T05:20:15;8.59;58.65
71396;DHT22;59888;55.814;37.132;2023-04-29T05:22:41;8.70;58.54
71396;DHT22;59888;55.814;37.132;2023-04-29T05:25:07;8.73;58.44
71396;DHT22;59888;55.814;37.132;2023-04-29T05:27:34;8.79;58.40
71396;DHT22;59888;55.814;37.132;2023-04-29T05:30:03;8.83;58.17
71396;DHT22;59888;55.814;37.132;2023-04-29T05:32:30;8.88;58.33
71396;DHT22;59888;55.814;37.132;2023-04-29T05:34:56;8.92;58.36
71396;DHT22;59888;55.814;37.132;2023-04-29T05:37:22;9.07;57.72
71396;DHT22;59888;55.814;37.132;2023-04-29T05:40:03;9.08;58.29
71396;DHT22;59888;55.814;37.132;2023-04-29T05:42:30;9.14;58.38
71396;DHT22;59888;55.814;37.132;2023-04-29T05:44:56;9.21;58.19
71396;DHT22;59888;55.814;37.132;2023-04-29T05:47:22;9.25;57.55
71396;DHT22;59888;55.814;37.132;2023-04-29T05:49:48;9.19;57.58
71396;DHT22;59888;55.814;37.132;2023-04-29T05:52:14;9.21;57.65
71396;DHT22;59888;55.814;37.132;2023-04-29T05:54:44;9.26;57.87
71396;DHT22;59888;55.814;37.132;2023-04-29T05:57:11;9.37;57.80
71396;DHT22;59888;55.814;37.132;2023-04-29T05:59:39;9.44;57.87
71396;DHT22;59888;55.814;37.132;2023-04-29T06:02:05;9.46;57.71
71396;DHT22;59888;55.814;37.132;2023-04-29T06:04:33;9.49;57.27
71396;DHT22;59888;55.814;37.132;2023-04-29T06:07:11;9.48;57.35
71396;DHT22;59888;55.814;37.132;2023-04-29T06:09:49;9.49;57.62
71396;DHT22;59888;55.814;37.132;2023-04-29T06:12:15;9.59;57.67
71396;DHT22;59888;55.814;37.132;2023-04-29T06:14:44;9.64;57.09
71396;DHT22;59888;55.814;37.132;2023-04-29T06:17:10;9.64;56.97
71396;DHT22;59888;55.814;37.132;2023-04-29T06:19:37;9.67;57.35
71396;DHT22;59888;55.814;37.132;2023-04-29T06:22:03;9.80;57.21
71396;DHT22;59888;55.814;37.132;2023-04-29T06:24:30;9.90;56.99
71396;DHT22;59888;55.814;37.132;2023-04-29T06:26:57;9.83;56.66
71396;DHT22;59888;55.814;37.132;2023-04-29T06:29:25;9.83;56.64
71396;DHT22;59888;55.814;37.132;2023-04-29T06:31:51;9.93;56.65
71396;DHT22;59888;55.814;37.132;2023-04-29T06:34:18;10.03;56.75
71396;DHT22;59888;55.814;37.132;2023-04-29T06:37:04;10.21;56.79
71396;DHT22;59888;55.814;37.132;2023-04-29T06:40:09;10.35;56.52
71396;DHT22;59888;55.814;37.132;2023-04-29T06:43:00;10.51;55.97
71396;DHT22;59888;55.814;37.132;2023-04-29T06:45:45;10.55;55.70
71396;DHT22;59888;55.814;37.132;2023-04-29T06:48:28;10.65;55.65
71396;DHT22;59888;55.814;37.132;2023-04-29T06:50:57;10.82;55.26
71396;DHT22;59888;55.814;37.132;2023-04-29T06:53:23;10.84;55.23
71396;DHT22;59888;55.814;37.132;2023-04-29T06:55:49;10.85;55.23
71396;DHT22;59888;55.814;37.132;2023-04-29T06:58:17;10.88;55.15
71396;DHT22;59888;55.814;37.132;2023-04-29T07:00:45;10.85;55.01
71396;DHT22;59888;55.814;37.132;2023-04-29T07:03:12;10.97;55.08
71396;DHT22;59888;55.814;37.132;2023-04-29T07:05:38;11.08;54.93
71396;DHT22;59888;55.814;37.132;2023-04-29T07:08:05;11.17;54.44
71396;DHT22;59888;55.814;37.132;2023-04-29T07:10:31;11.12;54.92
71396;DHT22;59888;55.814;37.132;2023-04-29T07:12:59;11.12;54.61
71396;DHT22;59888;55.814;37.132;2023-04-29T07:15:26;11.27;54.49
71396;DHT22;59888;55.814;37.132;2023-04-29T07:17:52;11.42;53.87
71396;DHT22;59888;55.814;37.132;2023-04-29T07:20:19;11.64;53.84
71396;DHT22;59888;55.814;37.132;2023-04-29T07:22:45;11.99;53.34
71396;DHT22;59888;55.814;37.132;2023-04-29T07:25:12;0.00;52.62
71396;DHT22;59888;55.814;37.132;2023-04-29T07:27:39;12.30;52.56
71396;DHT22;59888;55.814;37.132;2023-04-29T07:30:06;12.41;51.75
71396;DHT22;59888;55.814;37.132;2023-04-29T07:32:32;12.30;51.92
71396;DHT22;59888;55.814;37.132;2023-04-29T07:35:02;12.25;51.96
71396;DHT22;59888;55.814;37.132;2023-04-29T07:37:31;12.25;51.37
71396;DHT22;59888;55.814;37.132;2023-04-29T07:39:57;12.13;51.69
71396;DHT22;59888;55.814;37.132;2023-04-29T07:42:23;11.94;51.80
71396;DHT22;59888;55.814;37.132;2023-04-29T07:44:50;11.96;52.08
71396;DHT22;59888;55.814;37.132;2023-04-29T07:47:17;11.99;51.75
71396;DHT22;59888;55.814;37.132;2023-04-29T07:49:44;11.86;52.14
71396;DHT22;59888;55.814;37.132;2023-04-29T07:52:10;11.92;52.33
71396;DHT22;59888;55.814;37.132;2023-04-29T07:54:36;11.99;51.44
71396;DHT22;59888;55.814;37.132;2023-04-29T07:57:04;12.04;51.82
71396;DHT22;59888;55.814;37.132;2023-04-29T07:59:31;12.19;49.92
71396;DHT22;59888;55.814;37.132;2023-04-29T08:01:57;12.33;50.35
71396;DHT22;59888;55.814;37.132;2023-04-29T08:04:23;12.53;49.84
71396;DHT22;59888;55.814;37.132;2023-04-29T08:06:58;12.74;49.23
71396;DHT22;59888;55.814;37.132;2023-04-29T08:09:24;12.69;48.23
71396;DHT22;59888;55.814;37.132;2023-04-29T08:11:50;12.85;49.36
71396;DHT22;59888;55.814;37.132;2023-04-29T08:14:16;12.93;48.57
71396;DHT22;59888;55.814;37.132;2023-04-29T08:16:42;13.16;48.78
71396;DHT22;59888;55.814;37.132;2023-04-29T08:19:08;13.24;48.23
71396;DHT22;59888;55.814;37.132;2023-04-29T08:21:34;13.35;47.25
71396;DHT22;59888;55.814;37.132;2023-04-29T08:24:00;13.45;47.01
71396;DHT22;59888;55.814;37.132;2023-04-29T08:26:26;13.43;45.87
71396;DHT22;59888;55.814;37.132;2023-04-29T08:28:52;13.46;47.00
71396;DHT22;59888;55.814;37.132;2023-04-29T08:31:19;13.61;47.00
71396;DHT22;59888;55.814;37.132;2023-04-29T08:33:46;13.64;44.21
71396;DHT22;59888;55.814;37.132;2023-04-29T08:36:13;13.62;45.65
71396;DHT22;59888;55.814;37.132;2023-04-29T08:38:39;13.78;44.60
71396;DHT22;59888;55.814;37.132;2023-04-29T08:41:08;13.98;43.05
71396;DHT22;59888;55.814;37.132;2023-04-29T08:43:36;14.01;43.11
71396;DHT22;59888;55.814;37.132;2023-04-29T08:46:05;14.21;43.61
71396;DHT22;59888;55.814;37.132;2023-04-29T08:48:33;14.41;43.00
71396;DHT22;59888;55.814;37.132;2023-04-29T08:51:00;14.41;42.64
71396;DHT22;59888;55.814;37.132;2023-04-29T08:53:27;14.40;43.59
71396;DHT22;59888;55.814;37.132;2023-04-29T08:55:54;14.35;42.74
71396;DHT22;59888;55.814;37.132;2023-04-29T08:58:24;14.18;42.05
71396;DHT22;59888;55.814;37.132;2023-04-29T09:00:51;14.25;42.56
71396;DHT22;59888;55.814;37.132;2023-04-29T09:03:29;14.48;41.58
71396;DHT22;59888;55.814;37.132;2023-04-29T09:05:59;14.65;41.68
71396;DHT22;59888;55.814;37.132;2023-04-29T09:08:25;14.54;41.16
71396;DHT22;59888;55.814;37.132;2023-04-29T09:10:53;14.38;42.16
71396;DHT22;59888;55.814;37.132;2023-04-29T09:13:27;14.26;41.37
71396;DHT22;59888;55.814;37.132;2023-04-29T09:15:54;14.06;42.03
71396;DHT22;59888;55.814;37.132;2023-04-29T09:21:18;14.30;42.43
71396;DHT22;59888;55.814;37.132;2023-04-29T09:23:45;14.48;42.65
71396;DHT22;59888;55.814;37.132;2023-04-29T09:26:11;14.55;41.59
71396;DHT22;59888;55.814;37.132;2023-04-29T09:28:38;14.73;41.94
71396;DHT22;59888;55.814;37.132;2023-04-29T09:31:05;14.99;41.99
71396;DHT22;59888;55.814;37.132;2023-04-29T09:33:53;15.21;38.75
71396;DHT22;59888;55.814;37.132;2023-04-29T09:39:01;15.28;40.09
71396;DHT22;59888;55.814;37.132;2023-04-29T09:41:27;15.22;40.45
71396;DHT22;59888;55.814;37.132;2023-04-29T09:44:11;15.30;37.61
71396;DHT22;59888;55.814;37.132;2023-04-29T09:46:38;15.39;36.38
71396;DHT22;59888;55.814;37.132;2023-04-29T09:49:21;15.48;36.82
71396;DHT22;59888;55.814;37.132;2023-04-29T09:51:55;15.54;36.91
71396;DHT22;59888;55.814;37.132;2023-04-29T09:54:22;15.70;36.14
71396;DHT22;59888;55.814;37.132;2023-04-29T09:56:52;15.67;34.62
71396;DHT22;59888;55.814;37.132;2023-04-29T09:59:18;15.74;33.83
71396;DHT22;59888;55.814;37.132;2023-04-29T10:01:49;15.61;35.86
71396;DHT22;59888;55.814;37.132;2023-04-29T10:04:18;15.60;36.46
71396;DHT22;59888;55.814;37.132;2023-04-29T10:06:52;15.71;35.73
71396;DHT22;59888;55.814;37.132;2023-04-29T10:09:19;15.88;36.66
71396;DHT22;59888;55.814;37.132;2023-04-29T10:11:49;16.01;36.89
71396;DHT22;59888;55.814;37.132;2023-04-29T10:14:18;15.95;35.26
71396;DHT22;59888;55.814;37.132;2023-04-29T10:17:13;15.85;33.65
71396;DHT22;59888;55.814;37.132;2023-04-29T10:20:05;15.70;33.27
71396;DHT22;59888;55.814;37.132;2023-04-29T10:22:46;15.96;34.30
71396;DHT22;59888;55.814;37.132;2023-04-29T10:25:19;16.00;33.31
71396;DHT22;59888;55.814;37.132;2023-04-29T10:27:46;16.03;33.70
71396;DHT22;59888;55.814;37.132;2023-04-29T10:30:18;16.06;35.60
71396;DHT22;59888;55.814;37.132;2023-04-29T10:32:46;16.16;35.21
71396;DHT22;59888;55.814;37.132;2023-04-29T10:35:13;16.28;36.02
71396;DHT22;59888;55.814;37.132;2023-04-29T10:37:41;16.21;36.70
71396;DHT22;59888;55.814;37.132;2023-04-29T10:40:15;16.06;32.96
71396;DHT22;59888;55.814;37.132;2023-04-29T10:42:50;15.96;32.87
71396;DHT22;59888;55.814;37.132;2023-04-29T10:45:17;15.96;34.58
71396;DHT22;59888;55.814;37.132;2023-04-29T10:53:01;15.76;33.04
71396;DHT22;59888;55.814;37.132;2023-04-29T10:55:29;15.70;32.57
71396;DHT22;59888;55.814;37.132;2023-04-29T10:57:55;15.43;32.70
71396;DHT22;59888;55.814;37.132;2023-04-29T11:00:25;15.48;32.23
71396;DHT22;59888;55.814;37.132;2023-04-29T11:02:55;15.59;34.79
71396;DHT22;59888;55.814;37.132;2023-04-29T11:05:32;15.75;32.82
71396;DHT22;59888;55.814;37.132;2023-04-29T11:08:11;16.12;30.22
71396;DHT22;59888;55.814;37.132;2023-04-29T11:10:42;16.41;32.70
71396;DHT22;59888;55.814;37.132;2023-04-29T11:13:25;16.74;33.65
71396;DHT22;59888;55.814;37.132;2023-04-29T11:16:11;16.56;28.90
71396;DHT22;59888;55.814;37.132;2023-04-29T11:19:03;16.69;30.24
71396;DHT22;59888;55.814;37.132;2023-04-29T11:21:29;16.89;31.85
71396;DHT22;59888;55.814;37.132;2023-04-29T11:23:57;17.03;32.98
71396;DHT22;59888;55.814;37.132;2023-04-29T11:26:23;17.19;33.17
71396;DHT22;59888;55.814;37.132;2023-04-29T11:28:50;17.30;33.76
71396;DHT22;59888;55.814;37.132;2023-04-29T11:31:19;17.38;32.59
71396;DHT22;59888;55.814;37.132;2023-04-29T11:33:45;17.37;33.88
71396;DHT22;59888;55.814;37.132;2023-04-29T11:36:11;17.47;32.86
71396;DHT22;59888;55.814;37.132;2023-04-29T11:38:39;17.39;33.18
71396;DHT22;59888;55.814;37.132;2023-04-29T11:41:10;17.26;32.70
71396;DHT22;59888;55.814;37.132;2023-04-29T11:43:37;17.18;31.51
71396;DHT22;59888;55.814;37.132;2023-04-29T11:46:13;17.05;30.40
71396;DHT22;59888;55.814;37.132;2023-04-29T11:48:46;17.22;32.47
71396;DHT22;59888;55.814;37.132;2023-04-29T11:51:14;17.53;33.73
71396;DHT22;59888;55.814;37.132;2023-04-29T11:53:40;17.87;31.77
71396;DHT22;59888;55.814;37.132;2023-04-29T11:56:10;17.90;32.80
71396;DHT22;59888;55.814;37.132;2023-04-29T11:58:36;17.76;32.06
71396;DHT22;59888;55.814;37.132;2023-04-29T12:01:04;17.89;31.66
71396;DHT22;59888;55.814;37.132;2023-04-29T12:03:33;18.00;30.93
71396;DHT22;59888;55.814;37.132;2023-04-29T12:06:01;18.23;29.61
71396;DHT22;59888;55.814;37.132;2023-04-29T12:08:28;18.23;31.25
71396;DHT22;59888;55.814;37.132;2023-04-29T12:10:57;18.44;31.19
71396;DHT22;59888;55.814;37.132;2023-04-29T12:13:27;18.49;28.42
71396;DHT22;59888;55.814;37.132;2023-04-29T12:15:53;18.34;28.57
71396;DHT22;59888;55.814;37.132;2023-04-29T12:18:20;18.51;28.93
71396;DHT22;59888;55.814;37.132;2023-04-29T12:20:49;18.65;31.02
71396;DHT22;59888;55.814;37.132;2023-04-29T12:23:18;18.82;30.50
71396;DHT22;59888;55.814;37.132;2023-04-29T12:25:52;18.94;28.85
71396;DHT22;59888;55.814;37.132;2023-04-29T12:28:18;18.94;30.01
71396;DHT22;59888;55.814;37.132;2023-04-29T12:30:45;18.81;29.75
71396;DHT22;59888;55.814;37.132;2023-04-29T12:33:25;18.69;26.90
71396;DHT22;59888;55.814;37.132;2023-04-29T12:35:53;18.40;29.46
71396;DHT22;59888;55.814;37.132;2023-04-29T12:38:29;0.00;29.19
71396;DHT22;59888;55.814;37.132;2023-04-29T12:40:58;17.92;27.87
71396;DHT22;59888;55.814;37.132;2023-04-29T12:43:26;17.61;30.12
71396;DHT22;59888;55.814;37.132;2023-04-29T12:46:09;17.48;29.09
71396;DHT22;59888;55.814;37.132;2023-04-29T12:48:38;17.37;30.44
71396;DHT22;59888;55.814;37.132;2023-04-29T12:51:11;17.64;30.96
71396;DHT22;59888;55.814;37.132;2023-04-29T12:53:37;17.82;31.75
71396;DHT22;59888;55.814;37.132;2023-04-29T12:56:04;21.47;29.40
71396;DHT22;59888;55.814;37.132;2023-04-29T12:58:31;24.77;26.60
71396;DHT22;59888;55.814;37.132;2023-04-29T13:00:59;0.00;0.00
71396;DHT22;59888;55.814;37.132;2023-04-29T13:03:25;0.00;0.00
71396;DHT22;59888;55.814;37.132;2023-04-29T13:05:51;0.00;0.00
71396;DHT22;59888;55.814;37.132;2023-04-29T13:08:19;0.00;0.00
71396;DHT22;59888;55.814;37.132;2023-04-29T13:10:45;0.00;0.00
71396;DHT22;59888;55.814;37.132;2023-04-29T13:13:12;0.00;0.00
71396;DHT22;59888;55.814;37.132;2023-04-29T13:15:38;0.00;0.00
71396;DHT22;59888;55.814;37.132;2023-04-29T13:18:04;0.00;0.00
71396;DHT22;59888;55.814;37.132;2023-04-29T13:20:30;0.00;0.00
71396;DHT22;59888;55.814;37.132;2023-04-29T13:22:58;0.00;0.00
71396;DHT22;59888;55.814;37.132;2023-04-29T13:25:24;0.00;0.00
71396;DHT22;59888;55.814;37.132;2023-04-29T13:27:50;0.00;0.00
71396;DHT22;59888;55.814;37.132;2023-04-29T13:30:16;0.00;0.00
71396;DHT22;59888;55.814;37.132;2023-04-29T13:32:42;0.00;0.00
71396;DHT22;59888;55.814;37.132;2023-04-29T13:35:09;0.00;0.00
71396;DHT22;59888;55.814;37.132;2023-04-29T13:37:36;0.00;0.00
71396;DHT22;59888;55.814;37.132;2023-04-29T13:40:03;0.00;0.00
71396;DHT22;59888;55.814;37.132;2023-04-29T13:42:30;0.00;0.00
71396;DHT22;59888;55.814;37.132;2023-04-29T13:44:56;0.00;0.00
71396;DHT22;59888;55.814;37.132;2023-04-29T13:47:22;0.00;0.00
71396;DHT22;59888;55.814;37.132;2023-04-29T13:49:48;0.00;0.00
71396;DHT22;59888;55.814;37.132;2023-04-29T13:52:14;0.00;0.00
71396;DHT22;59888;55.814;37.132;2023-04-29T13:54:40;0.00;0.00
71396;DHT22;59888;55.814;37.132;2023-04-29T13:57:06;0.00;0.00
71396;DHT22;59888;55.814;37.132;2023-04-29T13:59:32;0.00;0.00
71396;DHT22;59888;55.814;37.132;2023-04-29T14:01:59;0.00;0.00
71396;DHT22;59888;55.814;37.132;2023-04-29T14:04:26;0.00;0.00
71396;DHT22;59888;55.814;37.132;2023-04-29T14:06:53;0.00;0.00
71396;DHT22;59888;55.814;37.132;2023-04-29T14:09:20;0.00;0.00
71396;DHT22;59888;55.814;37.132;2023-04-29T14:11:48;0.00;0.00
71396;DHT22;59888;55.814;37.132;2023-04-29T14:14:15;0.00;0.00
71396;DHT22;59888;55.814;37.132;2023-04-29T14:16:41;0.00;0.00
71396;DHT22;59888;55.814;37.132;2023-04-29T14:19:08;0.00;0.00
71396;DHT22;59888;55.814;37.132;2023-04-29T14:21:34;0.00;0.00
71396;DHT22;59888;55.814;37.132;2023-04-29T14:24:00;0.00;0.00
71396;DHT22;59888;55.814;37.132;2023-04-29T14:26:28;0.00;0.00
71396;DHT22;59888;55.814;37.132;2023-04-29T14:28:54;0.00;0.00
71396;DHT22;59888;55.814;37.132;2023-04-29T14:31:25;0.00;0.00
71396;DHT22;59888;55.814;37.132;2023-04-29T14:33:56;0.00;0.00
71396;DHT22;59888;55.814;37.132;2023-04-29T14:36:22;0.00;0.00
71396;DHT22;59888;55.814;37.132;2023-04-29T14:38:48;0.00;0.00
71396;DHT22;59888;55.814;37.132;2023-04-29T14:41:14;0.00;0.00
71396;DHT22;59888;55.814;37.132;2023-04-29T14:43:40;0.00;0.00
71396;DHT22;59888;55.814;37.132;2023-04-29T14:46:07;0.00;0.00
71396;DHT22;59888;55.814;37.132;2023-04-29T14:48:34;0.00;0.00
71396;DHT22;59888;55.814;37.132;2023-04-29T14:51:00;0.00;0.00
71396;DHT22;59888;55.814;37.132;2023-04-29T14:53:26;0.00;0.00
71396;DHT22;59888;55.814;37.132;2023-04-29T14:55:52;0.00;0.00
71396;DHT22;59888;55.814;37.132;2023-04-29T14:58:18;0.00;0.00
71396;DHT22;59888;55.814;37.132;2023-04-29T15:00:45;0.00;0.00
71396;DHT22;59888;55.814;37.132;2023-04-29T15:03:11;0.00;0.00
71396;DHT22;59888;55.814;37.132;2023-04-29T15:05:37;0.00;0.00
71396;DHT22;59888;55.814;37.132;2023-04-29T15:08:03;0.00;0.00
71396;DHT22;59888;55.814;37.132;2023-04-29T15:10:29;0.00;0.00
71396;DHT22;59888;55.814;37.132;2023-04-29T15:12:55;0.00;0.00
71396;DHT22;59888;55.814;37.132;2023-04-29T15:15:22;0.00;0.00
71396;DHT22;59888;55.814;37.132;2023-04-29T15:17:48;0.00;0.00
71396;DHT22;59888;55.814;37.132;2023-04-29T15:20:14;0.00;0.00
71396;DHT22;59888;55.814;37.132;2023-04-29T15:22:40;0.00;0.00
71396;DHT22;59888;55.814;37.132;2023-04-29T15:25:07;0.00;0.00
71396;DHT22;59888;55.814;37.132;2023-04-29T15:27:34;0.00;0.00
71396;DHT22;59888;55.814;37.132;2023-04-29T15:30:01;0.00;0.00
71396;DHT22;59888;55.814;37.132;2023-04-29T15:32:31;0.00;0.00
71396;DHT22;59888;55.814;37.132;2023-04-29T15:35:01;0.00;0.00
71396;DHT22;59888;55.814;37.132;2023-04-29T15:37:30;0.00;0.00
71396;DHT22;59888;55.814;37.132;2023-04-29T15:40:00;0.00;0.00
71396;DHT22;59888;55.814;37.132;2023-04-29T15:42:26;0.00;0.00
71396;DHT22;59888;55.814;37.132;2023-04-29T15:44:52;0.00;0.00
71396;DHT22;59888;55.814;37.132;2023-04-29T15:47:18;0.00;0.00
71396;DHT22;59888;55.814;37.132;2023-04-29T15:49:44;0.00;0.00
71396;DHT22;59888;55.814;37.132;2023-04-29T15:52:10;0.00;0.00
71396;DHT22;59888;55.814;37.132;2023-04-29T15:54:36;0.00;0.00
71396;DHT22;59888;55.814;37.132;2023-04-29T15:57:02;0.00;0.00
71396;DHT22;59888;55.814;37.132;2023-04-29T15:59:29;0.00;0.00
71396;DHT22;59888;55.814;37.132;2023-04-29T16:01:55;0.00;0.00
71396;DHT22;59888;55.814;37.132;2023-04-29T16:04:21;0.00;0.00